createdAt,value
2022-12-17T00:00:05.064Z,99980.00
2022-12-17T00:04:25.905Z,99992.48
2022-12-17T00:08:46.473Z,100013.86
2022-12-17T00:13:07.625Z,100029.67
2022-12-17T00:17:28.312Z,100027.48
2022-12-17T00:21:48.920Z,100032.63
2022-12-17T00:26:14.663Z,100029.89
2022-12-17T00:30:35.382Z,100033.27
2022-12-17T00:34:56.464Z,100042.56
2022-12-17T00:39:17.610Z,100042.59
2022-12-17T00:43:39.060Z,100042.27
2022-12-17T00:48:00.095Z,100036.29
2022-12-17T00:52:20.720Z,100045.73
2022-12-17T00:56:41.421Z,100052.75
2022-12-17T01:01:02.326Z,100055.82
2022-12-17T01:05:24.072Z,100055.98
2022-12-17T01:09:44.595Z,100073.13
2022-12-17T01:14:06.412Z,100085.14
2022-12-17T01:18:27.126Z,100081.65
2022-12-17T01:22:47.978Z,100092.04
2022-12-17T01:27:08.761Z,100094.89
2022-12-17T01:31:34.904Z,100098.20
2022-12-17T01:35:56.083Z,100094.67
2022-12-17T01:40:18.116Z,100091.41
2022-12-17T01:45:05.115Z,100075.98
2022-12-17T01:49:27.901Z,100071.52
2022-12-17T01:53:54.140Z,100077.69
2022-12-17T01:58:19.081Z,100097.77
2022-12-17T02:02:41.539Z,100110.93
2022-12-17T02:07:17.648Z,100110.25
2022-12-17T02:12:21.185Z,100110.73
2022-12-17T02:16:54.068Z,100106.49
2022-12-17T02:21:16.205Z,100100.10
2022-12-17T02:25:55.553Z,100096.58
2022-12-17T02:30:23.937Z,100098.89
2022-12-17T02:34:44.643Z,100104.92
2022-12-17T02:39:05.166Z,100106.09
2022-12-17T02:43:29.034Z,100107.66
2022-12-17T02:47:50.282Z,100111.66
2022-12-17T02:52:13.071Z,100109.59
2022-12-17T02:56:34.131Z,100106.09
2022-12-17T03:00:55.278Z,100092.04
2022-12-17T03:05:43.596Z,100085.05
2022-12-17T03:09:58.649Z,100087.01
2022-12-17T03:14:19.438Z,100086.36
2022-12-17T03:18:39.980Z,100085.48
2022-12-17T03:23:00.631Z,100093.55
2022-12-17T03:27:21.415Z,100089.81
2022-12-17T03:31:43.715Z,100085.05
2022-12-17T03:36:04.344Z,100079.77
2022-12-17T03:40:25.363Z,100080.47
2022-12-17T03:44:45.917Z,100078.19
2022-12-17T03:49:06.440Z,100076.00
2022-12-17T03:53:27.004Z,100067.58
2022-12-17T03:57:47.585Z,100074.89
2022-12-17T04:02:08.421Z,100081.50
2022-12-17T04:06:29.443Z,100090.19
2022-12-17T04:10:50.072Z,100101.16
2022-12-17T04:15:10.661Z,100112.23
2022-12-17T04:19:31.368Z,100125.75
2022-12-17T04:23:52.164Z,100156.19
2022-12-17T04:28:12.675Z,100221.60
2022-12-17T04:32:35.400Z,100249.02
2022-12-17T04:36:57.895Z,100228.55
2022-12-17T04:41:18.458Z,100225.64
2022-12-17T04:45:39.140Z,100208.77
2022-12-17T04:49:59.782Z,100208.52
2022-12-17T04:54:20.455Z,100199.52
2022-12-17T04:58:41.067Z,100190.34
2022-12-17T05:03:02.057Z,100196.44
2022-12-17T05:07:23.039Z,100197.10
2022-12-17T05:11:44.073Z,100201.81
2022-12-17T05:16:04.941Z,100192.06
2022-12-17T05:20:26.276Z,100186.19
2022-12-17T05:24:46.979Z,100187.64
2022-12-17T05:29:12.494Z,100193.98
2022-12-17T05:33:36.446Z,100202.41
2022-12-17T05:37:57.696Z,100207.36
2022-12-17T05:42:18.366Z,100218.70
2022-12-17T05:46:39.242Z,100230.50
2022-12-17T05:50:59.963Z,100220.60
2022-12-17T05:55:20.594Z,100224.13
2022-12-17T05:59:41.292Z,100223.38
2022-12-17T06:04:01.840Z,100225.17
2022-12-17T06:08:27.096Z,100229.20
2022-12-17T06:12:47.658Z,100240.05
2022-12-17T06:17:08.441Z,100249.63
2022-12-17T06:21:29.266Z,100243.77
2022-12-17T06:25:49.878Z,100260.62
2022-12-17T06:30:14.277Z,100272.02
2022-12-17T06:34:39.185Z,100277.93
2022-12-17T06:38:59.877Z,100275.35
2022-12-17T06:43:20.387Z,100280.50
2022-12-17T06:47:40.920Z,100296.15
2022-12-17T06:52:01.543Z,100298.55
2022-12-17T06:56:22.060Z,100292.11
2022-12-17T07:00:42.714Z,100277.13
2022-12-17T07:05:03.412Z,100277.02
2022-12-17T07:09:23.947Z,100288.61
2022-12-17T07:13:44.501Z,100285.14
2022-12-17T07:18:17.052Z,100276.07
2022-12-17T07:22:51.333Z,100280.30
2022-12-17T07:27:12.410Z,100284.03
2022-12-17T07:31:33.125Z,100280.71
2022-12-17T07:35:53.692Z,100283.42
2022-12-17T07:40:14.247Z,100294.70
2022-12-17T07:44:34.705Z,100301.71
2022-12-17T07:48:55.143Z,100306.86
2022-12-17T07:53:20.871Z,100323.55
2022-12-17T07:57:41.554Z,100336.33
2022-12-17T08:02:02.293Z,100343.89
2022-12-17T08:06:23.617Z,100346.61
2022-12-17T08:10:44.587Z,100348.64
2022-12-17T08:15:05.210Z,100355.69
2022-12-17T08:19:25.860Z,100363.60
2022-12-17T08:23:46.495Z,100380.58
2022-12-17T08:28:11.203Z,100390.36
2022-12-17T08:32:37.017Z,100403.41
2022-12-17T08:36:57.670Z,100414.30
2022-12-17T08:41:19.916Z,100416.43
2022-12-17T08:45:40.557Z,100417.73
2022-12-17T08:50:01.209Z,100416.04
2022-12-17T08:54:21.693Z,100415.45
2022-12-17T08:58:42.218Z,100418.14
2022-12-17T09:03:03.901Z,100422.28
2022-12-17T09:07:25.111Z,100423.70
2022-12-17T09:11:59.300Z,100421.55
2022-12-17T09:16:20.145Z,100423.36
2022-12-17T09:20:40.640Z,100422.90
2022-12-17T09:25:01.347Z,100426.10
2022-12-17T09:29:21.946Z,100432.41
2022-12-17T09:33:58.476Z,100440.08
2022-12-17T09:38:20.123Z,100446.29
2022-12-17T09:42:51.709Z,100443.67
2022-12-17T09:47:29.666Z,100455.39
2022-12-17T09:51:52.655Z,100455.77
2022-12-17T09:56:13.250Z,100455.23
2022-12-17T10:00:37.497Z,100441.04
2022-12-17T10:05:03.276Z,100443.46
2022-12-17T10:09:33.520Z,100453.30
2022-12-17T10:13:53.978Z,100453.58
2022-12-17T10:18:15.099Z,100459.38
2022-12-17T10:22:39.328Z,100468.13
2022-12-17T10:27:06.697Z,100471.77
2022-12-17T10:31:37.591Z,100466.89
2022-12-17T10:35:58.888Z,100480.64
2022-12-17T10:40:20.925Z,100485.00
2022-12-17T10:44:41.553Z,100479.71
2022-12-17T10:49:05.669Z,100474.84
2022-12-17T10:53:40.983Z,100478.23
2022-12-17T10:58:01.939Z,100481.15
2022-12-17T11:02:35.327Z,100492.70
2022-12-17T11:07:01.366Z,100487.73
2022-12-17T11:11:25.538Z,100488.91
2022-12-17T11:16:01.655Z,100487.51
2022-12-17T11:20:40.000Z,100493.80
2022-12-17T11:25:09.099Z,100499.13
2022-12-17T11:29:33.285Z,100512.13
2022-12-17T11:34:03.763Z,100505.40
2022-12-17T11:38:36.468Z,100512.33
2022-12-17T11:43:11.719Z,100513.64
2022-12-17T11:48:13.117Z,100509.93
2022-12-17T11:52:41.864Z,100512.18
2022-12-17T11:57:08.882Z,100518.21
2022-12-17T12:01:52.494Z,100509.42
2022-12-17T12:06:19.493Z,100510.42
2022-12-17T12:10:54.278Z,100518.80
2022-12-17T12:15:14.972Z,100533.58
2022-12-17T12:20:14.323Z,100547.19
2022-12-17T12:24:58.036Z,100556.27
2022-12-17T12:29:35.573Z,100559.89
2022-12-17T12:34:05.702Z,100561.45
2022-12-17T12:38:42.975Z,100571.44
2022-12-17T12:43:18.756Z,100568.14
2022-12-17T12:47:50.539Z,100566.36
2022-12-17T12:52:14.142Z,100577.61
2022-12-17T12:56:46.463Z,100588.42
2022-12-17T13:01:07.097Z,100596.95
2022-12-17T13:05:35.435Z,100598.73
2022-12-17T13:09:48.718Z,100597.59
2022-12-17T13:13:56.938Z,100593.89
2022-12-17T13:18:18.730Z,100597.02
2022-12-17T13:22:24.273Z,100604.58
2022-12-17T13:26:38.552Z,100611.87
2022-12-17T13:30:40.529Z,100617.95
2022-12-17T13:34:59.377Z,100612.50
2022-12-17T13:39:56.320Z,100611.09
2022-12-17T13:44:03.456Z,100617.13
2022-12-17T13:48:05.535Z,100620.16
2022-12-17T13:52:18.760Z,100623.48
2022-12-17T13:56:33.994Z,100631.59
2022-12-17T14:00:35.961Z,100634.47
2022-12-17T14:04:38.107Z,100644.70
2022-12-17T14:08:41.288Z,100647.25
2022-12-17T14:12:43.532Z,100655.10
2022-12-17T14:16:50.647Z,100660.64
2022-12-17T14:20:55.514Z,100665.26
2022-12-17T14:24:57.503Z,100681.80
2022-12-17T14:28:59.457Z,100694.64
2022-12-17T14:33:01.382Z,100697.25
2022-12-17T14:37:03.340Z,100689.85
2022-12-17T14:41:30.966Z,100693.55
2022-12-17T14:45:52.866Z,100712.73
2022-12-17T14:49:56.902Z,100724.56
2022-12-17T14:54:16.608Z,100726.73
2022-12-17T14:58:21.468Z,100718.40
2022-12-17T15:02:27.815Z,100720.41
2022-12-17T15:06:30.050Z,100714.58
2022-12-17T15:10:32.040Z,100713.73
2022-12-17T15:14:33.937Z,100716.06
2022-12-17T15:18:36.518Z,100723.73
2022-12-17T15:22:38.804Z,100725.35
2022-12-17T15:26:40.706Z,100722.00
2022-12-17T15:30:43.064Z,100725.36
2022-12-17T15:34:45.586Z,100733.50
2022-12-17T15:38:47.433Z,100733.78
2022-12-17T15:43:09.221Z,100738.08
2022-12-17T15:47:11.145Z,100755.15
2022-12-17T15:51:19.246Z,100767.14
2022-12-17T15:55:21.653Z,100771.61
2022-12-17T15:59:23.750Z,100776.80
2022-12-17T16:03:25.654Z,100780.89
2022-12-17T16:07:27.722Z,100783.08
2022-12-17T16:11:29.695Z,100783.80
2022-12-17T16:15:31.670Z,100787.23
2022-12-17T16:19:33.603Z,100793.84
2022-12-17T16:23:36.153Z,100799.36
2022-12-17T16:27:38.110Z,100809.16
2022-12-17T16:31:40.079Z,100817.08
2022-12-17T16:35:50.737Z,100829.37
2022-12-17T16:39:59.811Z,100837.80
2022-12-17T16:44:02.659Z,100840.52
2022-12-17T16:48:04.681Z,100849.74
2022-12-17T16:52:06.592Z,100852.15
2022-12-17T16:56:14.084Z,100851.40
2022-12-17T17:00:16.099Z,100857.80
2022-12-17T17:04:21.650Z,100860.86
2022-12-17T17:08:23.685Z,100864.18
2022-12-17T17:12:26.436Z,100871.13
2022-12-17T17:16:30.031Z,100875.98
2022-12-17T17:20:31.957Z,100878.99
2022-12-17T17:24:33.996Z,100884.68
2022-12-17T17:28:36.372Z,100890.80
2022-12-17T17:32:38.503Z,100896.15
2022-12-17T17:36:40.868Z,100900.80
2022-12-17T17:40:42.756Z,100906.11
2022-12-17T17:44:44.656Z,100909.42
2022-12-17T17:48:49.117Z,100916.20
2022-12-17T17:52:53.540Z,100924.23
2022-12-17T17:56:55.516Z,100931.44
2022-12-17T18:00:58.248Z,100942.00
2022-12-17T18:05:00.219Z,100953.41
2022-12-17T18:09:02.165Z,100955.35
2022-12-17T18:13:23.058Z,100962.53
2022-12-17T18:17:24.952Z,100963.89
2022-12-17T18:21:28.770Z,100969.61
2022-12-17T18:25:37.191Z,100976.85
2022-12-17T18:29:40.031Z,100980.08
2022-12-17T18:33:45.367Z,100985.42
2022-12-17T18:37:48.548Z,100992.05
2022-12-17T18:42:10.744Z,101000.61
2022-12-17T18:46:12.679Z,101003.98
2022-12-17T18:50:15.202Z,101012.70
2022-12-17T18:54:20.416Z,101028.55
2022-12-17T18:58:22.344Z,101034.61
2022-12-17T19:02:24.482Z,101038.79
2022-12-17T19:06:26.622Z,101035.39
2022-12-17T19:10:28.587Z,101041.75
2022-12-17T19:14:30.498Z,101052.41
2022-12-17T19:18:32.658Z,101059.80
2022-12-17T19:22:34.619Z,101072.92
2022-12-17T19:26:36.933Z,101084.53
2022-12-17T19:30:38.868Z,101086.65
2022-12-17T19:34:40.730Z,101084.98
2022-12-17T19:38:43.065Z,101094.73
2022-12-17T19:42:45.939Z,101104.58
2022-12-17T19:46:48.415Z,101112.75
2022-12-17T19:50:57.009Z,101113.81
2022-12-17T19:54:58.916Z,101117.23
2022-12-17T19:59:06.305Z,101121.02
2022-12-17T20:03:09.627Z,101127.48
2022-12-17T20:07:11.748Z,101133.79
2022-12-17T20:11:33.961Z,101132.37
2022-12-17T20:15:36.223Z,101141.60
2022-12-17T20:19:39.287Z,101139.94
2022-12-17T20:23:41.552Z,101142.46
2022-12-17T20:27:43.895Z,101150.31
2022-12-17T20:31:49.676Z,101157.52
2022-12-17T20:35:52.732Z,101159.38
2022-12-17T20:39:54.705Z,101164.33
2022-12-17T20:43:58.119Z,101173.52
2022-12-17T20:48:00.156Z,101178.73
2022-12-17T20:52:02.343Z,101186.88
2022-12-17T20:56:12.585Z,101193.69
2022-12-17T21:00:15.008Z,101199.23
2022-12-17T21:04:16.890Z,101205.30
2022-12-17T21:08:18.763Z,101211.58
2022-12-17T21:12:20.699Z,101221.98
2022-12-17T21:16:25.906Z,101225.44
2022-12-17T21:20:27.821Z,101230.15
2022-12-17T21:24:30.129Z,101229.02
2022-12-17T21:28:33.246Z,101236.70
2022-12-17T21:32:35.138Z,101241.14
2022-12-17T21:36:37.394Z,101239.31
2022-12-17T21:40:41.035Z,101247.61
2022-12-17T21:44:43.008Z,101243.98
2022-12-17T21:48:45.518Z,101249.72
2022-12-17T21:52:47.859Z,101254.05
2022-12-17T21:56:49.797Z,101255.06
2022-12-17T22:00:51.699Z,101263.08
2022-12-17T22:04:53.674Z,101263.30
2022-12-17T22:09:06.593Z,101264.04
2022-12-17T22:13:38.359Z,101261.14
2022-12-17T22:17:41.703Z,101263.33
2022-12-17T22:21:44.600Z,101269.59
2022-12-17T22:25:46.480Z,101276.80
2022-12-17T22:30:07.649Z,101281.09
2022-12-17T22:35:12.321Z,101284.55
2022-12-17T22:42:26.864Z,101287.34
2022-12-17T22:44:42.078Z,101288.88
2022-12-17T22:47:36.699Z,101291.42
2022-12-17T22:51:43.021Z,101292.81
2022-12-17T22:55:45.594Z,101297.44
2022-12-17T22:59:47.552Z,101306.30
2022-12-17T23:03:49.736Z,101305.04
2022-12-17T23:07:52.313Z,101310.77
2022-12-17T23:11:54.224Z,101319.83
2022-12-17T23:15:56.138Z,101334.48
2022-12-17T23:19:58.030Z,101336.69
2022-12-17T23:24:00.129Z,101342.20
2022-12-17T23:28:02.191Z,101343.02
2022-12-17T23:32:04.511Z,101346.08
2022-12-17T23:36:09.352Z,101348.79
2022-12-17T23:40:12.796Z,101355.02
2022-12-17T23:44:14.717Z,101359.86
2022-12-17T23:48:16.598Z,101361.89
2022-12-17T23:52:18.598Z,101361.69
2022-12-17T23:56:26.798Z,101361.59
